Wilson, Idaho
Current Conditions -  °F | °C
As of 5:15 PM on Wednesday 22 Oct 2014 (Local Time) from KMAN Reporting Station
Few Clouds Few Clouds  
Wind Chill: 61°   Ceiling: Unl
Heat Index: 61°   Visibility: 10mi
Dew Point: 34°   Wind: 12mph
Humidity: 36%   Direction: 140°SE
Pressure: 30.02"   Gusts: 16mph
Location:  43.3697°N, 116.52°W
Report Text: KMAN 222315Z AUTO 14010G14KT 10SM FEW110 16/01 A3002 RMK AO1
Loading
Personal Weather Stations






























Interactive Weather Map
Tropical Storm Tracking
New forecast layout! Learn more

10-Day Weather Forecast

Advertisements
Track Severe Weather on mobile